TUI3JC EGKK-EHAM
Flight info
| Callsign | TUI3JC |
|---|---|
| Flight time | 0h 44m |
| Altitude | 29000 |
| Route | FRANE M604 GASBA M197 REDFA |
| Aircraft | B38M/M-SDE1FGHILORVWXY/HB1 |
Departure
| Time | 2026-05-07 18:08 |
|---|---|
| Airport | London Gatwick Airport (EGKK) |
Arrival
| Time | 2026-05-07 18:52 |
|---|---|
| Airport | Amsterdam Airport Schiphol (EHAM) |
| Time | Latitude | Longitude | Altitude | Speed | Heading |
|---|---|---|---|---|---|
| 2026-05-07 17:41 | 51.15901 | -0.17961 | 194 ft | 0 kts | 78° |
| 2026-05-07 17:56 | 51.15899 | -0.17974 | 193 ft | 2 kts | 80° |
| 2026-05-07 17:56 | 51.15896 | -0.17997 | 193 ft | 2 kts | 77° |
| 2026-05-07 17:56 | 51.15893 | -0.18021 | 192 ft | 2 kts | 78° |
| 2026-05-07 17:56 | 51.15890 | -0.18044 | 192 ft | 2 kts | 78° |
| 2026-05-07 17:57 | 51.15890 | -0.18068 | 191 ft | 2 kts | 111° |
| 2026-05-07 17:57 | 51.15895 | -0.18083 | 191 ft | 2 kts | 128° |
| 2026-05-07 17:57 | 51.15911 | -0.18101 | 191 ft | 1 kts | 163° |
| 2026-05-07 17:57 | 51.15917 | -0.18103 | 191 ft | 1 kts | 173° |
| 2026-05-07 17:58 | 51.15921 | -0.18104 | 191 ft | 0 kts | 170° |
| 2026-05-07 17:59 | 51.15920 | -0.18104 | 191 ft | 0 kts | 170° |
| 2026-05-07 17:59 | 51.15877 | -0.18091 | 191 ft | 14 kts | 168° |
| 2026-05-07 17:59 | 51.15783 | -0.18058 | 191 ft | 12 kts | 167° |
| 2026-05-07 18:00 | 51.15699 | -0.18039 | 192 ft | 9 kts | 210° |
| 2026-05-07 18:00 | 51.15677 | -0.18116 | 190 ft | 10 kts | 262° |
| 2026-05-07 18:00 | 51.15646 | -0.18325 | 190 ft | 23 kts | 257° |
| 2026-05-07 18:00 | 51.15610 | -0.18589 | 192 ft | 26 kts | 257° |
| 2026-05-07 18:01 | 51.15564 | -0.18821 | 193 ft | 3 kts | 178° |
| 2026-05-07 18:01 | 51.15517 | -0.18816 | 193 ft | 17 kts | 170° |
| 2026-05-07 18:01 | 51.15362 | -0.18764 | 193 ft | 23 kts | 168° |
| 2026-05-07 18:01 | 51.15210 | -0.18710 | 195 ft | 21 kts | 167° |
| 2026-05-07 18:02 | 51.15107 | -0.18880 | 196 ft | 17 kts | 257° |
| 2026-05-07 18:02 | 51.15068 | -0.19148 | 195 ft | 32 kts | 258° |
| 2026-05-07 18:02 | 51.15010 | -0.19578 | 193 ft | 44 kts | 257° |
| 2026-05-07 18:03 | 51.14954 | -0.19991 | 196 ft | 29 kts | 258° |
| 2026-05-07 18:03 | 51.14926 | -0.20196 | 197 ft | 16 kts | 257° |
| 2026-05-07 18:03 | 51.14903 | -0.20364 | 197 ft | 15 kts | 259° |
| 2026-05-07 18:03 | 51.14878 | -0.20545 | 196 ft | 22 kts | 257° |
| 2026-05-07 18:04 | 51.14835 | -0.20855 | 196 ft | 31 kts | 258° |
| 2026-05-07 18:04 | 51.14787 | -0.21177 | 199 ft | 29 kts | 254° |
| 2026-05-07 18:04 | 51.14727 | -0.21391 | 203 ft | 3 kts | 197° |
| 2026-05-07 18:05 | 51.14708 | -0.21394 | 203 ft | 8 kts | 178° |
| 2026-05-07 18:05 | 51.14631 | -0.21330 | 202 ft | 12 kts | 165° |
| 2026-05-07 18:05 | 51.14613 | -0.21323 | 202 ft | 0 kts | 167° |
| 2026-05-07 18:06 | 51.14606 | -0.21320 | 202 ft | 2 kts | 166° |
| 2026-05-07 18:06 | 51.14588 | -0.21313 | 202 ft | 3 kts | 165° |
| 2026-05-07 18:06 | 51.14550 | -0.21280 | 201 ft | 11 kts | 136° |
| 2026-05-07 18:06 | 51.14522 | -0.21133 | 199 ft | 14 kts | 77° |
| 2026-05-07 18:07 | 51.14526 | -0.21110 | 199 ft | 0 kts | 76° |
| 2026-05-07 18:07 | 51.14530 | -0.21084 | 199 ft | 15 kts | 76° |
| 2026-05-07 18:07 | 51.14614 | -0.20481 | 196 ft | 93 kts | 78° |
| 2026-05-07 18:07 | 51.14786 | -0.19141 | 199 ft | 151 kts | 77° |
| 2026-05-07 18:08 | 51.15066 | -0.17406 | 545 ft | 174 kts | 77° |
| 2026-05-07 18:08 | 51.15381 | -0.15432 | 1093 ft | 195 kts | 79° |
| 2026-05-07 18:08 | 51.15663 | -0.13213 | 1753 ft | 211 kts | 82° |
| 2026-05-07 18:08 | 51.15910 | -0.10917 | 2350 ft | 224 kts | 81° |
| 2026-05-07 18:09 | 51.16180 | -0.08356 | 2838 ft | 244 kts | 82° |
| 2026-05-07 18:09 | 51.16479 | -0.05649 | 3477 ft | 256 kts | 78° |
| 2026-05-07 18:09 | 51.16866 | -0.02899 | 4190 ft | 259 kts | 83° |
| 2026-05-07 18:09 | 51.16972 | -0.00042 | 4949 ft | 262 kts | 92° |
| 2026-05-07 18:10 | 51.16884 | 0.02864 | 5823 ft | 263 kts | 95° |
| 2026-05-07 18:10 | 51.16773 | 0.05747 | 6683 ft | 264 kts | 94° |
| 2026-05-07 18:10 | 51.16687 | 0.08662 | 7499 ft | 273 kts | 93° |
| 2026-05-07 18:10 | 51.16619 | 0.11683 | 8355 ft | 280 kts | 92° |
| 2026-05-07 18:11 | 51.16560 | 0.14810 | 9257 ft | 285 kts | 92° |
| 2026-05-07 18:11 | 51.16536 | 0.16874 | 9891 ft | 288 kts | 91° |
| 2026-05-07 18:11 | 51.16541 | 0.21166 | 11193 ft | 293 kts | 90° |
| 2026-05-07 18:11 | 51.16560 | 0.24427 | 11949 ft | 303 kts | 90° |
| 2026-05-07 18:12 | 51.16576 | 0.27844 | 12473 ft | 321 kts | 90° |
| 2026-05-07 18:12 | 51.16585 | 0.31508 | 12971 ft | 337 kts | 91° |
| 2026-05-07 18:12 | 51.16590 | 0.35287 | 13480 ft | 352 kts | 91° |
| 2026-05-07 18:12 | 51.16594 | 0.39230 | 14005 ft | 366 kts | 90° |
| 2026-05-07 18:13 | 51.16960 | 0.43276 | 14518 ft | 379 kts | 72° |
| 2026-05-07 18:13 | 51.17944 | 0.47273 | 15035 ft | 390 kts | 70° |
| 2026-05-07 18:13 | 51.18765 | 0.51418 | 15546 ft | 399 kts | 75° |
| 2026-05-07 18:13 | 51.19444 | 0.55715 | 16053 ft | 407 kts | 77° |
| 2026-05-07 18:14 | 51.20076 | 0.60089 | 16564 ft | 415 kts | 77° |
| 2026-05-07 18:14 | 51.20712 | 0.64654 | 17082 ft | 422 kts | 78° |
| 2026-05-07 18:14 | 51.21339 | 0.69242 | 17597 ft | 428 kts | 78° |
| 2026-05-07 18:14 | 51.22140 | 0.73658 | 18146 ft | 416 kts | 65° |
| 2026-05-07 18:15 | 51.23777 | 0.77439 | 18686 ft | 421 kts | 44° |
| 2026-05-07 18:15 | 51.26060 | 0.80410 | 19217 ft | 426 kts | 35° |
| 2026-05-07 18:15 | 51.28471 | 0.83168 | 19737 ft | 431 kts | 36° |
| 2026-05-07 18:15 | 51.30868 | 0.86045 | 20254 ft | 435 kts | 34° |
| 2026-05-07 18:16 | 51.33315 | 0.88884 | 20774 ft | 438 kts | 40° |
| 2026-05-07 18:16 | 51.35504 | 0.92317 | 21417 ft | 439 kts | 47° |
| 2026-05-07 18:16 | 51.37451 | 0.95935 | 22305 ft | 433 kts | 50° |
| 2026-05-07 18:16 | 51.39351 | 0.99688 | 23230 ft | 427 kts | 51° |
| 2026-05-07 18:17 | 51.41175 | 1.03375 | 23931 ft | 426 kts | 51° |
| 2026-05-07 18:17 | 51.42989 | 1.07082 | 24598 ft | 425 kts | 51° |
| 2026-05-07 18:17 | 51.44788 | 1.10780 | 25266 ft | 424 kts | 51° |
| 2026-05-07 18:17 | 51.46594 | 1.14503 | 25935 ft | 423 kts | 51° |
| 2026-05-07 18:18 | 51.48385 | 1.18209 | 26605 ft | 421 kts | 51° |
| 2026-05-07 18:18 | 51.50161 | 1.21893 | 27279 ft | 418 kts | 51° |
| 2026-05-07 18:18 | 51.51911 | 1.25530 | 27940 ft | 415 kts | 51° |
| 2026-05-07 18:18 | 51.53665 | 1.29175 | 28614 ft | 412 kts | 51° |
| 2026-05-07 18:19 | 51.55404 | 1.32794 | 29005 ft | 415 kts | 51° |
| 2026-05-07 18:19 | 51.57359 | 1.36188 | 29047 ft | 423 kts | 40° |
| 2026-05-07 18:19 | 51.59516 | 1.39529 | 29054 ft | 433 kts | 46° |
| 2026-05-07 18:20 | 51.63448 | 1.47037 | 29048 ft | 452 kts | 50° |
| 2026-05-07 18:20 | 51.67379 | 1.55130 | 29047 ft | 469 kts | 51° |
| 2026-05-07 18:21 | 51.71426 | 1.63539 | 29046 ft | 485 kts | 51° |
| 2026-05-07 18:21 | 51.75614 | 1.72248 | 29044 ft | 495 kts | 52° |
| 2026-05-07 18:22 | 51.79808 | 1.80993 | 29045 ft | 493 kts | 52° |
| 2026-05-07 18:22 | 51.83997 | 1.89750 | 29053 ft | 493 kts | 52° |
| 2026-05-07 18:23 | 51.88169 | 1.98475 | 29059 ft | 493 kts | 52° |
| 2026-05-07 18:23 | 51.92358 | 2.07240 | 29065 ft | 494 kts | 52° |
| 2026-05-07 18:24 | 51.96552 | 2.16033 | 29067 ft | 493 kts | 52° |
| 2026-05-07 18:24 | 52.00730 | 2.24811 | 29062 ft | 489 kts | 51° |
| 2026-05-07 18:25 | 52.04851 | 2.33488 | 29063 ft | 491 kts | 51° |
| 2026-05-07 18:25 | 52.08819 | 2.42559 | 29059 ft | 495 kts | 54° |
| 2026-05-07 18:26 | 52.12981 | 2.51418 | 29053 ft | 494 kts | 55° |
| 2026-05-07 18:26 | 52.16506 | 2.60966 | 29056 ft | 494 kts | 60° |
| 2026-05-07 18:27 | 52.19793 | 2.70777 | 29055 ft | 497 kts | 62° |
| 2026-05-07 18:27 | 52.23117 | 2.80569 | 29049 ft | 494 kts | 61° |
| 2026-05-07 18:28 | 52.26477 | 2.90227 | 28422 ft | 490 kts | 60° |
| 2026-05-07 18:28 | 52.28183 | 2.95010 | 27482 ft | 493 kts | 60° |
| 2026-05-07 18:28 | 52.29903 | 2.99841 | 26211 ft | 495 kts | 60° |
| 2026-05-07 18:28 | 52.31611 | 3.04655 | 25139 ft | 492 kts | 60° |
| 2026-05-07 18:29 | 52.33300 | 3.09430 | 24705 ft | 476 kts | 60° |
| 2026-05-07 18:29 | 52.34922 | 3.14019 | 24040 ft | 466 kts | 60° |
| 2026-05-07 18:29 | 52.36539 | 3.18598 | 23181 ft | 462 kts | 60° |
| 2026-05-07 18:29 | 52.38118 | 3.23072 | 22356 ft | 457 kts | 60° |
| 2026-05-07 18:30 | 52.39682 | 3.27508 | 21577 ft | 451 kts | 60° |
| 2026-05-07 18:30 | 52.41228 | 3.31900 | 20803 ft | 445 kts | 60° |
| 2026-05-07 18:30 | 52.42762 | 3.36305 | 19945 ft | 441 kts | 61° |
| 2026-05-07 18:30 | 52.44270 | 3.40610 | 19170 ft | 435 kts | 58° |
| 2026-05-07 18:31 | 52.45786 | 3.44810 | 18362 ft | 431 kts | 63° |
| 2026-05-07 18:31 | 52.46904 | 3.49281 | 17579 ft | 426 kts | 71° |
| 2026-05-07 18:31 | 52.47758 | 3.53897 | 17020 ft | 414 kts | 74° |
| 2026-05-07 18:31 | 52.48589 | 3.58244 | 16439 ft | 398 kts | 71° |
| 2026-05-07 18:32 | 52.49458 | 3.62439 | 15844 ft | 381 kts | 72° |
| 2026-05-07 18:32 | 52.50190 | 3.66485 | 15350 ft | 364 kts | 76° |
| 2026-05-07 18:32 | 52.50731 | 3.70461 | 14886 ft | 347 kts | 80° |
| 2026-05-07 18:32 | 52.51053 | 3.74250 | 14481 ft | 332 kts | 85° |
| 2026-05-07 18:33 | 52.51170 | 3.77965 | 14143 ft | 317 kts | 90° |
| 2026-05-07 18:33 | 52.51104 | 3.81486 | 13709 ft | 307 kts | 93° |
| 2026-05-07 18:33 | 52.51065 | 3.84950 | 13097 ft | 305 kts | 88° |
| 2026-05-07 18:33 | 52.51215 | 3.88395 | 12472 ft | 303 kts | 84° |
| 2026-05-07 18:34 | 52.51496 | 3.91769 | 11874 ft | 300 kts | 82° |
| 2026-05-07 18:34 | 52.51734 | 3.95111 | 11268 ft | 297 kts | 87° |
| 2026-05-07 18:34 | 52.51659 | 3.98461 | 10669 ft | 294 kts | 99° |
| 2026-05-07 18:34 | 52.51232 | 4.01685 | 10167 ft | 288 kts | 107° |
| 2026-05-07 18:35 | 52.50600 | 4.04742 | 10060 ft | 287 kts | 111° |
| 2026-05-07 18:35 | 52.49867 | 4.07807 | 9843 ft | 290 kts | 112° |
| 2026-05-07 18:35 | 52.49121 | 4.10838 | 9588 ft | 285 kts | 112° |
| 2026-05-07 18:35 | 52.48400 | 4.13770 | 9330 ft | 271 kts | 112° |
| 2026-05-07 18:36 | 52.47719 | 4.16542 | 9080 ft | 259 kts | 112° |
| 2026-05-07 18:36 | 52.47057 | 4.19235 | 8795 ft | 251 kts | 112° |
| 2026-05-07 18:36 | 52.46405 | 4.21839 | 8565 ft | 250 kts | 112° |
| 2026-05-07 18:36 | 52.45761 | 4.24465 | 8308 ft | 248 kts | 112° |
| 2026-05-07 18:37 | 52.45124 | 4.27085 | 8035 ft | 247 kts | 112° |
| 2026-05-07 18:37 | 52.44488 | 4.29687 | 7786 ft | 245 kts | 112° |
| 2026-05-07 18:37 | 52.43852 | 4.32275 | 7543 ft | 244 kts | 112° |
| 2026-05-07 18:37 | 52.43229 | 4.34800 | 7273 ft | 242 kts | 112° |
| 2026-05-07 18:38 | 52.42598 | 4.37351 | 7072 ft | 239 kts | 112° |
| 2026-05-07 18:38 | 52.41978 | 4.39860 | 7094 ft | 240 kts | 112° |
| 2026-05-07 18:38 | 52.41357 | 4.42370 | 7073 ft | 241 kts | 112° |
| 2026-05-07 18:38 | 52.40731 | 4.44897 | 7068 ft | 238 kts | 112° |
| 2026-05-07 18:39 | 52.40104 | 4.47422 | 7048 ft | 239 kts | 112° |
| 2026-05-07 18:39 | 52.39478 | 4.49940 | 7071 ft | 240 kts | 112° |
| 2026-05-07 18:39 | 52.38846 | 4.52479 | 7080 ft | 240 kts | 112° |
| 2026-05-07 18:39 | 52.38217 | 4.55002 | 7064 ft | 240 kts | 112° |
| 2026-05-07 18:40 | 52.37595 | 4.57499 | 7055 ft | 240 kts | 112° |
| 2026-05-07 18:40 | 52.36962 | 4.60035 | 7062 ft | 240 kts | 112° |
| 2026-05-07 18:40 | 52.36336 | 4.62538 | 7065 ft | 240 kts | 112° |
| 2026-05-07 18:40 | 52.35686 | 4.65060 | 7068 ft | 240 kts | 118° |
| 2026-05-07 18:41 | 52.34641 | 4.67140 | 7064 ft | 239 kts | 147° |
| 2026-05-07 18:41 | 52.33082 | 4.67922 | 7069 ft | 240 kts | 184° |
| 2026-05-07 18:41 | 52.31547 | 4.66939 | 7070 ft | 243 kts | 222° |
| 2026-05-07 18:41 | 52.30548 | 4.64741 | 7079 ft | 245 kts | 240° |
| 2026-05-07 18:42 | 52.29767 | 4.62268 | 6965 ft | 241 kts | 243° |
| 2026-05-07 18:42 | 52.29023 | 4.59811 | 6620 ft | 242 kts | 243° |
| 2026-05-07 18:42 | 52.28283 | 4.57353 | 6337 ft | 240 kts | 243° |
| 2026-05-07 18:42 | 52.27552 | 4.54917 | 5999 ft | 242 kts | 243° |
| 2026-05-07 18:43 | 52.26808 | 4.52448 | 5676 ft | 243 kts | 243° |
| 2026-05-07 18:43 | 52.26047 | 4.49949 | 5114 ft | 248 kts | 243° |
| 2026-05-07 18:43 | 52.25306 | 4.47513 | 5085 ft | 234 kts | 243° |
| 2026-05-07 18:43 | 52.24567 | 4.45100 | 4545 ft | 247 kts | 243° |
| 2026-05-07 18:44 | 52.23803 | 4.42621 | 4508 ft | 231 kts | 243° |
| 2026-05-07 18:44 | 52.23100 | 4.40342 | 5019 ft | 235 kts | 243° |
| 2026-05-07 18:44 | 52.22351 | 4.37914 | 4739 ft | 244 kts | 243° |
| 2026-05-07 18:44 | 52.21585 | 4.35427 | 4314 ft | 249 kts | 243° |
| 2026-05-07 18:45 | 52.20810 | 4.32904 | 3889 ft | 249 kts | 244° |
| 2026-05-07 18:45 | 52.20249 | 4.30269 | 3460 ft | 246 kts | 248° |
| 2026-05-07 18:45 | 52.19393 | 4.27887 | 3023 ft | 242 kts | 223° |
| 2026-05-07 18:45 | 52.18021 | 4.26367 | 2593 ft | 237 kts | 198° |
| 2026-05-07 18:46 | 52.16483 | 4.26028 | 2584 ft | 221 kts | 171° |
| 2026-05-07 18:46 | 52.15001 | 4.26879 | 2871 ft | 221 kts | 143° |
| 2026-05-07 18:46 | 52.13933 | 4.28620 | 3012 ft | 220 kts | 119° |
| 2026-05-07 18:46 | 52.13443 | 4.30956 | 2993 ft | 219 kts | 94° |
| 2026-05-07 18:47 | 52.13512 | 4.33433 | 2987 ft | 220 kts | 83° |
| 2026-05-07 18:47 | 52.13705 | 4.35893 | 2968 ft | 219 kts | 82° |
| 2026-05-07 18:47 | 52.13898 | 4.38338 | 2974 ft | 220 kts | 82° |
| 2026-05-07 18:47 | 52.14095 | 4.40834 | 2954 ft | 223 kts | 82° |
| 2026-05-07 18:48 | 52.14292 | 4.43311 | 2966 ft | 222 kts | 82° |
| 2026-05-07 18:48 | 52.14492 | 4.45801 | 2989 ft | 222 kts | 82° |
| 2026-05-07 18:48 | 52.14687 | 4.48271 | 2983 ft | 222 kts | 82° |
| 2026-05-07 18:48 | 52.14880 | 4.50785 | 2988 ft | 222 kts | 81° |
| 2026-05-07 18:49 | 52.15318 | 4.53151 | 2989 ft | 221 kts | 60° |
| 2026-05-07 18:49 | 52.16328 | 4.55000 | 2998 ft | 220 kts | 37° |
| 2026-05-07 18:49 | 52.17625 | 4.56365 | 2972 ft | 223 kts | 32° |
| 2026-05-07 18:49 | 52.18944 | 4.57658 | 2973 ft | 222 kts | 32° |
| 2026-05-07 18:50 | 52.20280 | 4.58969 | 2911 ft | 224 kts | 32° |
| 2026-05-07 18:50 | 52.21592 | 4.60261 | 2671 ft | 221 kts | 32° |
| 2026-05-07 18:50 | 52.22881 | 4.61599 | 2423 ft | 219 kts | 33° |
| 2026-05-07 18:50 | 52.24126 | 4.62951 | 2090 ft | 211 kts | 38° |
| 2026-05-07 18:51 | 52.25219 | 4.64518 | 1548 ft | 210 kts | 46° |
| 2026-05-07 18:51 | 52.26107 | 4.66334 | 1044 ft | 209 kts | 58° |
| 2026-05-07 18:51 | 52.26855 | 4.68387 | 922 ft | 212 kts | 60° |
| 2026-05-07 18:51 | 52.27609 | 4.70439 | 570 ft | 214 kts | 58° |
| 2026-05-07 18:52 | 52.28378 | 4.72324 | 256 ft | 187 kts | 56° |
| 2026-05-07 18:52 | 52.29012 | 4.73965 | 41 ft | 157 kts | 59° |
| 2026-05-07 18:52 | 52.29529 | 4.75330 | -1 ft | 126 kts | 59° |
| 2026-05-07 18:52 | 52.29853 | 4.76179 | -2 ft | 44 kts | 57° |
| 2026-05-07 18:53 | 52.30022 | 4.76532 | -2 ft | 39 kts | 27° |
| 2026-05-07 18:53 | 52.30150 | 4.76645 | -2 ft | 11 kts | 28° |
| 2026-05-07 18:53 | 52.30223 | 4.76707 | -2 ft | 13 kts | 28° |
| 2026-05-07 18:53 | 52.30320 | 4.76847 | 0 ft | 26 kts | 53° |
| 2026-05-07 18:54 | 52.30438 | 4.77177 | 5 ft | 41 kts | 66° |